createdAt,value
2022-12-11T00:00:53.029Z,0.90
2022-12-11T00:03:20.128Z,0.90
2022-12-11T00:05:47.209Z,0.90
2022-12-11T00:08:14.452Z,1.00
2022-12-11T00:10:49.189Z,1.00
2022-12-11T00:13:16.264Z,1.00
2022-12-11T00:15:43.200Z,0.90
2022-12-11T00:18:14.144Z,0.90
2022-12-11T00:20:41.224Z,0.90
2022-12-11T00:23:08.304Z,0.80
2022-12-11T00:25:35.360Z,0.90
2022-12-11T00:28:02.300Z,0.90
2022-12-11T00:30:29.221Z,0.90
2022-12-11T00:32:56.119Z,0.90
2022-12-11T00:35:23.043Z,0.90
2022-12-11T00:37:50.027Z,0.90
2022-12-11T00:40:17.173Z,1.00
2022-12-11T00:42:44.058Z,1.00
2022-12-11T00:45:11.796Z,1.00
2022-12-11T00:47:39.130Z,1.00
2022-12-11T00:50:06.631Z,1.00
2022-12-11T00:52:33.636Z,1.00
2022-12-11T00:55:00.837Z,1.00
2022-12-11T00:57:27.821Z,1.00
2022-12-11T00:59:54.780Z,0.90
2022-12-11T01:02:21.747Z,0.90
2022-12-11T01:04:48.705Z,0.90
2022-12-11T01:07:15.656Z,0.90
2022-12-11T01:10:01.145Z,0.80
2022-12-11T01:12:28.692Z,0.80
2022-12-11T01:14:55.656Z,0.90
2022-12-11T01:17:22.512Z,0.90
2022-12-11T01:19:49.409Z,0.80
2022-12-11T01:22:16.320Z,0.70
2022-12-11T01:24:43.519Z,0.80
2022-12-11T01:27:10.473Z,0.80
2022-12-11T01:29:37.344Z,0.80
2022-12-11T01:32:04.438Z,0.80
2022-12-11T01:34:31.816Z,0.80
2022-12-11T01:36:59.439Z,0.80
2022-12-11T01:39:26.325Z,0.90
2022-12-11T01:42:00.817Z,0.90
2022-12-11T01:44:27.671Z,0.90
2022-12-11T01:46:55.046Z,0.80
2022-12-11T01:49:26.253Z,0.80
2022-12-11T01:51:59.073Z,0.80
2022-12-11T01:54:28.436Z,0.80
2022-12-11T01:56:58.966Z,0.80
2022-12-11T01:59:28.762Z,0.80
2022-12-11T02:02:12.291Z,0.80
2022-12-11T02:04:41.869Z,0.80
2022-12-11T02:07:10.018Z,0.70
2022-12-11T02:09:40.186Z,0.80
2022-12-11T02:12:13.350Z,0.80
2022-12-11T02:15:11.653Z,0.80
2022-12-11T02:18:19.613Z,0.70
2022-12-11T02:20:55.348Z,0.70
2022-12-11T02:23:54.521Z,0.60
2022-12-11T02:26:30.075Z,0.60
2022-12-11T02:29:03.483Z,0.60
2022-12-11T02:31:46.476Z,0.50
2022-12-11T02:34:25.443Z,0.50
2022-12-11T02:36:57.535Z,0.50
2022-12-11T02:39:27.079Z,0.50
2022-12-11T02:41:55.192Z,0.60
2022-12-11T02:44:27.114Z,0.60
2022-12-11T02:46:54.655Z,0.50
2022-12-11T02:49:23.303Z,0.50
2022-12-11T02:51:52.538Z,0.50
2022-12-11T02:54:28.462Z,0.50
2022-12-11T02:56:59.520Z,0.50
2022-12-11T02:59:32.409Z,0.40
2022-12-11T03:01:59.629Z,0.40
2022-12-11T03:04:26.752Z,0.50
2022-12-11T03:06:56.498Z,0.50
2022-12-11T03:09:23.525Z,0.40
2022-12-11T03:11:50.441Z,0.30
2022-12-11T03:14:17.427Z,0.30
2022-12-11T03:17:19.509Z,0.30
2022-12-11T03:20:04.886Z,0.30
2022-12-11T03:22:38.785Z,0.40
2022-12-11T03:25:26.522Z,0.30
2022-12-11T03:27:59.214Z,0.30
2022-12-11T03:30:28.792Z,0.40
2022-12-11T03:33:05.091Z,0.30
2022-12-11T03:35:41.064Z,0.30
2022-12-11T03:38:21.190Z,0.40
2022-12-11T03:40:53.316Z,0.50
2022-12-11T03:43:22.336Z,0.40
2022-12-11T03:45:51.751Z,0.50
2022-12-11T03:48:20.960Z,0.60
2022-12-11T03:50:49.752Z,0.60
2022-12-11T03:53:19.046Z,0.60
2022-12-11T03:55:48.205Z,0.60
2022-12-11T03:58:15.125Z,0.60
2022-12-11T04:00:41.977Z,0.50
2022-12-11T04:03:15.869Z,0.50
2022-12-11T04:05:45.533Z,0.50
2022-12-11T04:08:12.969Z,0.50
2022-12-11T04:10:41.280Z,0.50
2022-12-11T04:13:09.283Z,0.50
2022-12-11T04:15:37.699Z,0.60
2022-12-11T04:18:24.065Z,0.60
2022-12-11T04:21:12.966Z,0.60
2022-12-11T04:23:58.525Z,0.70
2022-12-11T04:26:26.252Z,0.70
2022-12-11T04:28:53.157Z,0.70
2022-12-11T04:31:22.221Z,0.70
2022-12-11T04:33:49.366Z,0.80
2022-12-11T04:36:17.314Z,0.80
2022-12-11T04:38:44.274Z,0.80
2022-12-11T04:41:14.167Z,0.70
2022-12-11T04:43:41.735Z,0.60
2022-12-11T04:46:12.040Z,0.50
2022-12-11T04:48:40.028Z,0.50
2022-12-11T04:51:07.851Z,0.40
2022-12-11T04:53:35.608Z,0.40
2022-12-11T04:56:05.921Z,0.40
2022-12-11T04:58:32.934Z,0.30
2022-12-11T05:01:00.086Z,0.30
2022-12-11T05:03:27.146Z,0.30
2022-12-11T05:05:54.190Z,0.30
2022-12-11T05:08:21.873Z,0.40
2022-12-11T05:10:59.763Z,0.30
2022-12-11T05:13:27.871Z,0.30
2022-12-11T05:15:55.194Z,0.20
2022-12-11T05:18:22.586Z,0.30
2022-12-11T05:21:05.159Z,0.30
2022-12-11T05:23:33.226Z,0.30
2022-12-11T05:26:06.229Z,0.40
2022-12-11T05:28:36.039Z,0.30
2022-12-11T05:31:06.174Z,0.40
2022-12-11T05:33:34.271Z,0.50
2022-12-11T05:36:01.608Z,0.50
2022-12-11T05:38:28.542Z,0.40
2022-12-11T05:41:07.860Z,0.50
2022-12-11T05:43:36.349Z,0.50
2022-12-11T05:46:32.801Z,0.30
2022-12-11T05:49:20.080Z,0.30
2022-12-11T05:52:05.747Z,0.20
2022-12-11T05:54:38.489Z,0.30
2022-12-11T05:57:05.631Z,0.30
2022-12-11T05:59:32.558Z,0.40
2022-12-11T06:01:59.716Z,0.40
2022-12-11T06:04:27.066Z,0.50
2022-12-11T06:06:57.091Z,0.50
2022-12-11T06:09:24.071Z,0.50
2022-12-11T06:11:51.139Z,0.60
2022-12-11T06:14:18.212Z,0.60
2022-12-11T06:16:45.200Z,0.70
2022-12-11T06:19:18.370Z,0.70
2022-12-11T06:21:46.244Z,0.70
2022-12-11T06:24:13.404Z,0.60
2022-12-11T06:26:40.387Z,0.50
2022-12-11T06:29:10.917Z,0.50
2022-12-11T06:31:40.443Z,0.50
2022-12-11T06:34:07.633Z,0.60
2022-12-11T06:36:35.279Z,0.50
2022-12-11T06:39:02.345Z,0.60
2022-12-11T06:41:29.352Z,0.60
2022-12-11T06:43:56.298Z,0.60
2022-12-11T06:46:23.234Z,0.50
2022-12-11T06:48:50.417Z,0.50
2022-12-11T06:51:22.713Z,0.50
2022-12-11T06:53:54.549Z,0.50
2022-12-11T06:56:22.723Z,0.50
2022-12-11T06:58:49.797Z,0.50
2022-12-11T07:01:25.468Z,0.50
2022-12-11T07:03:59.638Z,0.30
2022-12-11T07:06:28.476Z,0.30
2022-12-11T07:08:56.008Z,0.30
2022-12-11T07:11:25.934Z,0.40
2022-12-11T07:13:52.953Z,0.40
2022-12-11T07:16:20.109Z,0.50
2022-12-11T07:18:49.817Z,0.40
2022-12-11T07:21:17.230Z,0.50
2022-12-11T07:23:44.234Z,0.50
2022-12-11T07:26:14.895Z,0.60
2022-12-11T07:28:43.435Z,0.60
2022-12-11T07:31:14.441Z,0.50
2022-12-11T07:33:42.556Z,0.50
2022-12-11T07:36:12.257Z,0.50
2022-12-11T07:38:39.396Z,0.40
2022-12-11T07:41:09.329Z,0.50
2022-12-11T07:43:36.786Z,0.50
2022-12-11T07:46:10.663Z,0.60
2022-12-11T07:48:39.680Z,0.60
2022-12-11T07:51:12.683Z,0.60
2022-12-11T07:53:39.594Z,0.50
2022-12-11T07:56:06.946Z,0.50
2022-12-11T07:58:34.111Z,0.40
2022-12-11T08:01:01.087Z,0.30
2022-12-11T08:03:28.072Z,0.30
2022-12-11T08:05:55.031Z,0.50
2022-12-11T08:08:22.161Z,0.60
2022-12-11T08:10:49.226Z,0.60
2022-12-11T08:13:16.620Z,0.70
2022-12-11T08:15:43.617Z,0.70
2022-12-11T08:18:10.613Z,0.60
2022-12-11T08:20:46.567Z,0.60
2022-12-11T08:23:28.672Z,0.60
2022-12-11T08:25:55.800Z,0.60
2022-12-11T08:28:22.757Z,0.60
2022-12-11T08:30:49.740Z,0.60
2022-12-11T08:33:16.727Z,0.60
2022-12-11T08:35:45.351Z,0.60
2022-12-11T08:38:12.406Z,0.70
2022-12-11T08:40:39.390Z,0.70
2022-12-11T08:43:09.238Z,0.60
2022-12-11T08:45:37.042Z,0.70
2022-12-11T08:48:04.227Z,0.70
2022-12-11T08:50:31.205Z,0.70
2022-12-11T08:52:58.395Z,0.70
2022-12-11T08:55:28.495Z,0.70
2022-12-11T08:57:55.436Z,0.70
2022-12-11T09:00:22.633Z,0.60
2022-12-11T09:02:49.668Z,0.60
2022-12-11T09:05:16.689Z,0.60
2022-12-11T09:07:44.268Z,0.60
2022-12-11T09:10:11.347Z,0.70
2022-12-11T09:12:39.942Z,0.70
2022-12-11T09:15:09.786Z,0.80
2022-12-11T09:17:37.717Z,0.70
2022-12-11T09:20:05.339Z,0.70
2022-12-11T09:22:36.684Z,0.60
2022-12-11T09:25:03.910Z,0.60
2022-12-11T09:27:30.973Z,0.50
2022-12-11T09:30:02.870Z,0.50
2022-12-11T09:32:33.579Z,0.50
2022-12-11T09:35:01.316Z,0.50
2022-12-11T09:37:30.354Z,0.50
2022-12-11T09:40:08.092Z,0.50
2022-12-11T09:43:12.712Z,0.50
2022-12-11T09:45:39.785Z,0.60
2022-12-11T09:48:09.785Z,0.50
2022-12-11T09:50:36.913Z,0.50
2022-12-11T09:53:16.807Z,0.60
2022-12-11T09:55:50.496Z,0.60
2022-12-11T09:58:37.340Z,0.60
2022-12-11T10:01:16.228Z,0.60
2022-12-11T10:03:50.737Z,0.50
2022-12-11T10:06:32.637Z,0.60
2022-12-11T10:09:24.455Z,0.60
2022-12-11T10:12:12.723Z,0.50
2022-12-11T10:15:24.270Z,0.60
2022-12-11T10:17:53.921Z,0.60
2022-12-11T10:20:23.748Z,0.70
2022-12-11T10:22:52.670Z,0.80
2022-12-11T10:25:35.931Z,0.80
2022-12-11T10:28:14.931Z,0.80
2022-12-11T10:30:53.248Z,0.70
2022-12-11T10:33:20.755Z,0.70
2022-12-11T10:35:55.937Z,0.80
2022-12-11T10:38:42.485Z,0.70
2022-12-11T10:41:12.444Z,0.70
2022-12-11T10:43:46.033Z,0.70
2022-12-11T10:46:25.517Z,0.70
2022-12-11T10:48:57.845Z,0.80
2022-12-11T10:51:36.339Z,0.80
2022-12-11T10:54:25.456Z,0.90
2022-12-11T10:56:53.041Z,0.90
2022-12-11T10:59:25.841Z,0.90
2022-12-11T11:01:53.577Z,0.70
2022-12-11T11:04:37.894Z,0.70
2022-12-11T11:07:15.547Z,0.70
2022-12-11T11:09:43.029Z,0.70
2022-12-11T11:12:27.551Z,0.70
2022-12-11T11:15:05.842Z,0.80
2022-12-11T11:17:49.778Z,0.80
2022-12-11T11:20:25.112Z,0.90
2022-12-11T11:22:55.956Z,0.90
2022-12-11T11:25:27.519Z,0.90
2022-12-11T11:28:01.232Z,0.80
2022-12-11T11:30:34.905Z,0.70
2022-12-11T11:33:19.741Z,0.80
2022-12-11T11:36:05.277Z,0.80
2022-12-11T11:38:33.990Z,0.90
2022-12-11T11:41:15.139Z,0.90
2022-12-11T11:44:05.099Z,0.90
2022-12-11T11:46:59.802Z,0.80
2022-12-11T11:49:29.591Z,0.80
2022-12-11T11:52:21.985Z,0.90
2022-12-11T11:55:06.536Z,1.00
2022-12-11T11:57:46.071Z,0.90
2022-12-11T12:00:18.349Z,0.90
2022-12-11T12:02:47.011Z,0.90
2022-12-11T12:05:14.264Z,0.90
2022-12-11T12:08:01.061Z,0.90
2022-12-11T12:10:41.099Z,0.90
2022-12-11T12:13:47.614Z,0.90
2022-12-11T12:16:43.787Z,1.00
2022-12-11T12:19:08.282Z,1.00
2022-12-11T12:21:37.023Z,0.90
2022-12-11T12:24:42.280Z,1.00
2022-12-11T12:27:51.546Z,1.10
2022-12-11T12:30:22.348Z,1.10
2022-12-11T12:32:59.532Z,1.20
2022-12-11T12:35:42.412Z,1.20
2022-12-11T12:38:18.317Z,1.20
2022-12-11T12:41:14.230Z,1.20
2022-12-11T12:44:06.370Z,1.10
2022-12-11T12:46:45.641Z,1.10
2022-12-11T12:49:27.773Z,1.20
2022-12-11T12:51:55.854Z,1.10
2022-12-11T12:54:25.198Z,1.10
2022-12-11T12:56:52.317Z,1.10
2022-12-11T12:59:25.024Z,1.00
2022-12-11T13:01:57.079Z,1.10
2022-12-11T13:04:59.420Z,1.10
2022-12-11T13:07:30.174Z,1.10
2022-12-11T13:10:07.436Z,1.20
2022-12-11T13:12:45.451Z,1.20
2022-12-11T13:15:30.485Z,1.20
2022-12-11T13:17:58.428Z,1.10
2022-12-11T13:20:28.349Z,1.10
2022-12-11T13:23:09.973Z,1.20
2022-12-11T13:25:49.684Z,1.30
2022-12-11T13:28:46.833Z,1.40
2022-12-11T13:31:16.908Z,1.30
2022-12-11T13:33:51.930Z,1.20
2022-12-11T13:36:24.065Z,1.10
2022-12-11T13:38:56.634Z,1.00
2022-12-11T13:41:24.529Z,1.10
2022-12-11T13:43:53.571Z,1.10
2022-12-11T13:46:29.316Z,1.20
2022-12-11T13:49:00.978Z,1.30
2022-12-11T13:51:31.348Z,1.30
2022-12-11T13:54:19.092Z,1.30
2022-12-11T13:56:55.946Z,1.30
2022-12-11T13:59:29.746Z,1.30
2022-12-11T14:02:00.385Z,1.20
2022-12-11T14:04:28.374Z,1.20
2022-12-11T14:06:57.102Z,1.30
2022-12-11T14:09:26.789Z,1.30
2022-12-11T14:11:57.338Z,1.20
2022-12-11T14:14:45.360Z,1.30
2022-12-11T14:17:28.293Z,1.30
2022-12-11T14:19:58.025Z,1.30
2022-12-11T14:22:27.568Z,1.30
2022-12-11T14:25:02.713Z,1.30
2022-12-11T14:27:30.315Z,1.30
2022-12-11T14:29:57.323Z,1.30
2022-12-11T14:32:38.509Z,1.20
2022-12-11T14:35:12.014Z,1.10
2022-12-11T14:37:39.664Z,1.20
2022-12-11T14:40:16.209Z,1.20
2022-12-11T14:43:00.460Z,1.10
2022-12-11T14:45:34.690Z,1.10
2022-12-11T14:48:10.779Z,1.10
2022-12-11T14:50:59.771Z,1.10
2022-12-11T14:53:32.936Z,1.20
2022-12-11T14:56:05.925Z,1.00
2022-12-11T14:58:39.100Z,0.90
2022-12-11T15:01:22.024Z,1.00
2022-12-11T15:03:49.065Z,1.00
2022-12-11T15:06:24.164Z,0.90
2022-12-11T15:08:51.274Z,0.80
2022-12-11T15:11:19.285Z,0.70
2022-12-11T15:13:55.347Z,0.70
2022-12-11T15:16:24.687Z,0.70
2022-12-11T15:18:54.340Z,0.70
2022-12-11T15:21:33.898Z,0.70
2022-12-11T15:24:03.887Z,0.80
2022-12-11T15:26:38.095Z,0.70
2022-12-11T15:29:22.599Z,0.60
2022-12-11T15:32:08.460Z,0.60
2022-12-11T15:34:43.966Z,0.60
2022-12-11T15:37:38.483Z,0.60
2022-12-11T15:40:06.331Z,0.60
2022-12-11T15:42:36.901Z,0.60
2022-12-11T15:45:07.178Z,0.60
2022-12-11T15:47:34.185Z,0.60
2022-12-11T15:50:21.087Z,0.60
2022-12-11T15:52:51.974Z,0.70
2022-12-11T15:55:20.739Z,0.60
2022-12-11T15:58:00.529Z,0.60
2022-12-11T16:00:28.324Z,0.60
2022-12-11T16:02:57.238Z,0.60
2022-12-11T16:05:25.589Z,0.60
2022-12-11T16:07:54.042Z,0.70
2022-12-11T16:10:22.749Z,0.70
2022-12-11T16:12:53.379Z,0.70
2022-12-11T16:15:23.831Z,0.70
2022-12-11T16:18:05.777Z,0.70
2022-12-11T16:20:34.609Z,0.70
2022-12-11T16:23:01.620Z,0.70
2022-12-11T16:25:29.359Z,0.70
2022-12-11T16:28:01.222Z,0.60
2022-12-11T16:30:29.339Z,0.60
2022-12-11T16:32:56.552Z,0.60
2022-12-11T16:35:23.742Z,0.60
2022-12-11T16:37:52.333Z,0.60
2022-12-11T16:40:20.620Z,0.50
2022-12-11T16:42:49.291Z,0.50
2022-12-11T16:45:20.062Z,0.50
2022-12-11T16:47:47.261Z,0.60
2022-12-11T16:50:15.707Z,0.50
2022-12-11T16:52:43.526Z,0.60
2022-12-11T16:55:12.093Z,0.70
2022-12-11T16:57:39.661Z,0.70
2022-12-11T17:00:09.116Z,0.70
2022-12-11T17:02:36.845Z,0.80
2022-12-11T17:05:04.399Z,0.80
2022-12-11T17:07:35.013Z,0.70
2022-12-11T17:10:05.475Z,0.70
2022-12-11T17:12:32.417Z,0.70
2022-12-11T17:14:59.374Z,0.70
2022-12-11T17:17:26.299Z,0.70
2022-12-11T17:19:53.326Z,0.70
2022-12-11T17:22:20.263Z,0.70
2022-12-11T17:24:47.244Z,0.70
2022-12-11T17:27:17.062Z,0.80
2022-12-11T17:29:44.032Z,0.70
2022-12-11T17:32:11.167Z,0.70
2022-12-11T17:34:38.828Z,0.80
2022-12-11T17:37:06.376Z,0.80
2022-12-11T17:39:33.675Z,0.80
2022-12-11T17:42:00.995Z,0.70
2022-12-11T17:44:30.620Z,0.70
2022-12-11T17:46:58.676Z,0.70
2022-12-11T17:49:26.056Z,0.70
2022-12-11T17:51:55.256Z,0.70
2022-12-11T17:54:23.631Z,0.70
2022-12-11T17:56:51.123Z,0.80
2022-12-11T17:59:19.430Z,0.80
2022-12-11T18:01:46.546Z,0.70
2022-12-11T18:04:13.789Z,0.70
2022-12-11T18:06:41.127Z,0.70
2022-12-11T18:09:08.351Z,0.80
2022-12-11T18:11:35.390Z,0.80
2022-12-11T18:14:02.414Z,0.80
2022-12-11T18:16:32.590Z,0.70
2022-12-11T18:19:00.140Z,0.70
2022-12-11T18:21:33.177Z,0.70
2022-12-11T18:24:00.940Z,0.70
2022-12-11T18:26:27.917Z,0.60
2022-12-11T18:28:55.129Z,0.60
2022-12-11T18:31:23.475Z,0.50
2022-12-11T18:33:51.158Z,0.60
2022-12-11T18:36:20.011Z,0.50
2022-12-11T18:38:47.991Z,0.50
2022-12-11T18:41:17.243Z,0.60
2022-12-11T18:43:44.524Z,0.50
2022-12-11T18:46:15.045Z,0.50
2022-12-11T18:48:43.217Z,0.50
2022-12-11T18:51:17.346Z,0.50
2022-12-11T18:53:45.056Z,0.50
2022-12-11T18:56:14.775Z,0.50
2022-12-11T18:58:42.152Z,0.40
2022-12-11T19:01:24.575Z,0.40
2022-12-11T19:03:58.914Z,0.40
2022-12-11T19:06:30.394Z,0.40
2022-12-11T19:08:58.136Z,0.40
2022-12-11T19:11:27.741Z,0.40
2022-12-11T19:13:59.252Z,0.40
2022-12-11T19:16:33.706Z,0.30
2022-12-11T19:19:12.641Z,0.30
2022-12-11T19:21:40.134Z,0.40
2022-12-11T19:24:08.500Z,0.40
2022-12-11T19:26:36.120Z,0.40
2022-12-11T19:29:04.135Z,0.40
2022-12-11T19:31:32.313Z,0.40
2022-12-11T19:33:59.662Z,0.40
2022-12-11T19:36:28.509Z,0.40
2022-12-11T19:39:01.201Z,0.40
2022-12-11T19:41:30.119Z,0.40
2022-12-11T19:43:58.412Z,0.40
2022-12-11T19:46:26.415Z,0.40
2022-12-11T19:48:54.822Z,0.40
2022-12-11T19:51:24.896Z,0.40
2022-12-11T19:53:52.256Z,0.30
2022-12-11T19:56:20.083Z,0.30
2022-12-11T19:58:47.848Z,0.40
2022-12-11T20:01:19.649Z,0.40
2022-12-11T20:03:46.957Z,0.30
2022-12-11T20:06:13.983Z,0.40
2022-12-11T20:08:45.559Z,0.30
2022-12-11T20:11:17.958Z,0.40
2022-12-11T20:13:47.161Z,0.30
2022-12-11T20:16:15.517Z,0.30
2022-12-11T20:18:42.909Z,0.40
2022-12-11T20:21:13.048Z,0.40
2022-12-11T20:23:42.022Z,0.40
2022-12-11T20:26:13.622Z,0.30
2022-12-11T20:31:37.255Z,0.30
2022-12-11T20:34:05.403Z,0.30
2022-12-11T20:36:32.331Z,0.30
2022-12-11T20:38:59.890Z,0.30
2022-12-11T20:41:27.658Z,0.20
2022-12-11T20:43:55.293Z,0.20
2022-12-11T20:46:25.180Z,0.30
2022-12-11T20:48:53.181Z,0.30
2022-12-11T20:51:25.775Z,0.30
2022-12-11T20:54:01.357Z,0.30
2022-12-11T20:56:31.307Z,0.30
2022-12-11T20:58:59.684Z,0.40
2022-12-11T21:01:28.737Z,0.40
2022-12-11T21:04:01.761Z,0.40
2022-12-11T21:06:34.470Z,0.30
2022-12-11T21:09:08.299Z,0.30
2022-12-11T21:11:51.584Z,0.30
2022-12-11T21:14:22.118Z,0.30
2022-12-11T21:16:49.019Z,0.30
2022-12-11T21:19:17.143Z,0.30
2022-12-11T21:21:45.351Z,0.30
2022-12-11T21:24:22.014Z,0.30
2022-12-11T21:26:50.038Z,0.20
2022-12-11T21:29:19.137Z,0.30
2022-12-11T21:31:46.281Z,0.30
2022-12-11T21:34:14.061Z,0.30
2022-12-11T21:36:41.111Z,0.30
2022-12-11T21:39:08.369Z,0.30
2022-12-11T21:41:35.365Z,0.20
2022-12-11T21:45:14.613Z,0.20
2022-12-11T21:46:49.349Z,0.20
2022-12-11T21:49:16.338Z,0.20
2022-12-11T21:51:47.184Z,0.30
2022-12-11T21:54:18.084Z,0.30
2022-12-11T21:56:46.021Z,0.20
2022-12-11T21:59:13.735Z,0.30
2022-12-11T22:01:45.865Z,0.20
2022-12-11T22:04:14.082Z,0.20
2022-12-11T22:06:47.087Z,0.20
2022-12-11T22:09:15.765Z,0.20
2022-12-11T22:11:43.823Z,0.20
2022-12-11T22:14:13.243Z,0.20
2022-12-11T22:16:40.426Z,0.20
2022-12-11T22:19:07.428Z,0.20
2022-12-11T22:21:34.849Z,0.20
2022-12-11T22:24:02.038Z,0.20
2022-12-11T22:26:29.410Z,0.20
2022-12-11T22:28:57.048Z,0.20
2022-12-11T22:31:26.445Z,0.20
2022-12-11T22:33:55.050Z,0.20
2022-12-11T22:36:26.638Z,0.20
2022-12-11T22:38:53.843Z,0.20
2022-12-11T22:41:29.903Z,0.30
2022-12-11T22:43:57.483Z,0.30
2022-12-11T22:46:27.088Z,0.30
2022-12-11T22:48:54.877Z,0.30
2022-12-11T22:51:22.137Z,0.20
2022-12-11T22:53:49.125Z,0.20
2022-12-11T22:56:16.407Z,0.20
2022-12-11T22:58:43.495Z,0.20
2022-12-11T23:01:13.773Z,0.20
2022-12-11T23:03:41.279Z,0.20
2022-12-11T23:06:11.255Z,0.20
2022-12-11T23:08:39.825Z,0.20
2022-12-11T23:11:31.268Z,0.20
2022-12-11T23:13:58.280Z,0.20
2022-12-11T23:16:27.938Z,0.10
2022-12-11T23:18:56.907Z,0.10
2022-12-11T23:21:25.592Z,0.20
2022-12-11T23:23:53.187Z,0.20
2022-12-11T23:26:21.423Z,0.20
2022-12-11T23:28:49.456Z,0.20
2022-12-11T23:31:17.752Z,0.20
2022-12-11T23:33:45.206Z,0.20
2022-12-11T23:36:16.154Z,0.20
2022-12-11T23:38:43.321Z,0.20
2022-12-11T23:41:13.816Z,0.20
2022-12-11T23:43:41.615Z,0.20
2022-12-11T23:46:12.979Z,0.10
2022-12-11T23:48:40.249Z,0.10
2022-12-11T23:51:08.275Z,0.10
2022-12-11T23:53:35.734Z,0.10
2022-12-11T23:56:08.487Z,0.10
2022-12-11T23:58:37.329Z,0.10
